Rotterdam, Netherlands
Current Conditions -  °F | °C
As of 10:25 PM on Wednesday 17 Dec 2014 (Local Time) from EHRD Reporting Station
Overcast Overcast  
Wind Chill: 52°   Ceiling: 2800
Heat Index: 52°   Visibility: 6mi
Dew Point: 48°   Wind: 12mph
Humidity: 88%   Direction: 240°WSW
Pressure: 29.77"   Gusts: NA
Location:  51.92°N, 4.27°E
Report Text: EHRD 172125Z AUTO 24010KT 9999 OVC028 11/09 Q1008 NOSIG
Loading
Personal Weather Stations






























Interactive Weather Map New forecast layout! Learn more

10-Day Weather Forecast

Advertisements
Track Severe Weather on mobile